createdAt,value
2022-09-20T00:00:19.749Z,96.34
2022-09-20T00:01:19.854Z,96.14
2022-09-20T00:02:19.724Z,96.14
2022-09-20T00:03:19.687Z,96.09
2022-09-20T00:04:19.671Z,95.98
2022-09-20T00:05:19.700Z,96.03
2022-09-20T00:06:19.627Z,95.93
2022-09-20T00:07:19.630Z,95.83
2022-09-20T00:08:19.583Z,95.78
2022-09-20T00:09:19.567Z,95.78
2022-09-20T00:10:19.565Z,96.14
2022-09-20T00:11:19.525Z,96.23
2022-09-20T00:12:19.502Z,95.89
2022-09-20T00:13:19.507Z,96.03
2022-09-20T00:14:19.462Z,95.98
2022-09-20T00:15:19.440Z,96.19
2022-09-20T00:16:19.482Z,95.93
2022-09-20T00:17:19.396Z,95.98
2022-09-20T00:18:19.382Z,95.98
2022-09-20T00:19:19.379Z,96.09
2022-09-20T00:20:19.341Z,96.09
2022-09-20T00:21:19.315Z,96.03
2022-09-20T00:22:19.295Z,95.78
2022-09-20T00:23:19.304Z,95.78
2022-09-20T00:24:19.278Z,95.93
2022-09-20T00:25:19.235Z,95.93
2022-09-20T00:26:19.217Z,96.09
2022-09-20T00:27:19.199Z,95.93
2022-09-20T00:28:19.180Z,96.19
2022-09-20T00:29:19.155Z,96.14
2022-09-20T00:30:19.152Z,96.30
2022-09-20T00:31:19.178Z,96.34
2022-09-20T00:32:19.093Z,96.30
2022-09-20T00:33:19.065Z,96.09
2022-09-20T00:34:19.049Z,96.30
2022-09-20T00:35:19.046Z,96.30
2022-09-20T00:36:19.024Z,96.60
2022-09-20T00:37:18.990Z,96.44
2022-09-20T00:38:18.974Z,96.14
2022-09-20T00:39:18.947Z,96.23
2022-09-20T00:40:18.975Z,96.44
2022-09-20T00:41:18.913Z,96.39
2022-09-20T00:42:18.888Z,96.30
2022-09-20T00:43:18.862Z,95.98
2022-09-20T00:44:18.855Z,96.39
2022-09-20T00:45:18.825Z,96.30
2022-09-20T00:46:18.865Z,96.09
2022-09-20T00:47:18.800Z,96.03
2022-09-20T00:48:18.765Z,95.98
2022-09-20T00:49:18.743Z,95.98
2022-09-20T00:50:18.729Z,96.34
2022-09-20T00:51:18.718Z,96.34
2022-09-20T00:52:18.683Z,96.54
2022-09-20T00:53:18.660Z,96.60
2022-09-20T00:54:20.513Z,96.30
2022-09-20T00:55:18.613Z,96.64
2022-09-20T00:56:18.616Z,96.54
2022-09-20T00:57:18.584Z,96.44
2022-09-20T00:58:18.560Z,96.44
2022-09-20T00:59:18.557Z,96.34
2022-09-20T01:00:18.520Z,96.14
2022-09-20T01:01:18.640Z,96.44
2022-09-20T01:02:18.499Z,96.50
2022-09-20T01:03:18.452Z,96.14
2022-09-20T01:04:18.436Z,96.09
2022-09-20T01:05:18.428Z,96.34
2022-09-20T01:06:18.389Z,96.39
2022-09-20T01:07:18.382Z,96.14
2022-09-20T01:08:18.349Z,96.34
2022-09-20T01:09:18.327Z,96.14
2022-09-20T01:10:18.325Z,95.98
2022-09-20T01:11:18.290Z,96.44
2022-09-20T01:12:18.264Z,96.44
2022-09-20T01:13:18.245Z,96.39
2022-09-20T01:14:18.220Z,96.30
2022-09-20T01:15:18.231Z,96.39
2022-09-20T01:16:18.240Z,96.34
2022-09-20T01:17:18.182Z,96.44
2022-09-20T01:18:18.139Z,96.09
2022-09-20T01:19:18.124Z,96.44
2022-09-20T01:20:18.119Z,96.23
2022-09-20T01:21:18.082Z,96.39
2022-09-20T01:22:18.059Z,96.34
2022-09-20T01:23:18.041Z,96.34
2022-09-20T01:24:18.041Z,96.54
2022-09-20T01:25:17.999Z,96.44
2022-09-20T01:26:17.981Z,96.34
2022-09-20T01:27:17.978Z,96.39
2022-09-20T01:28:17.935Z,96.39
2022-09-20T01:29:17.914Z,96.50
2022-09-20T01:30:17.896Z,96.44
2022-09-20T01:31:17.933Z,96.30
2022-09-20T01:32:17.851Z,96.54
2022-09-20T01:33:17.839Z,96.44
2022-09-20T01:34:17.814Z,96.34
2022-09-20T01:35:17.811Z,96.44
2022-09-20T01:36:17.767Z,96.03
2022-09-20T01:37:17.754Z,96.44
2022-09-20T01:38:17.729Z,96.44
2022-09-20T01:39:17.714Z,96.64
2022-09-20T01:40:17.742Z,96.50
2022-09-20T01:41:17.684Z,96.54
2022-09-20T01:42:17.650Z,96.64
2022-09-20T01:43:17.646Z,96.44
2022-09-20T01:44:17.609Z,96.60
2022-09-20T01:45:17.587Z,96.70
2022-09-20T01:46:17.610Z,96.39
2022-09-20T01:47:17.547Z,96.44
2022-09-20T01:48:17.548Z,96.44
2022-09-20T01:49:17.505Z,96.54
2022-09-20T01:50:17.484Z,96.75
2022-09-20T01:51:17.463Z,96.64
2022-09-20T01:52:17.439Z,96.44
2022-09-20T01:53:17.439Z,96.84
2022-09-20T01:54:17.403Z,96.50
2022-09-20T01:55:17.378Z,96.50
2022-09-20T01:56:17.359Z,96.84
2022-09-20T01:57:17.338Z,96.54
2022-09-20T01:58:17.318Z,96.50
2022-09-20T01:59:24.261Z,96.84
2022-09-20T02:00:17.280Z,96.84
2022-09-20T02:01:17.344Z,96.54
2022-09-20T02:02:17.292Z,96.75
2022-09-20T02:03:17.236Z,96.75
2022-09-20T02:04:17.196Z,96.64
2022-09-20T02:05:17.173Z,96.34
2022-09-20T02:06:17.151Z,96.75
2022-09-20T02:07:17.133Z,97.05
2022-09-20T02:08:17.116Z,97.25
2022-09-20T02:09:17.109Z,96.84
2022-09-20T02:10:17.073Z,96.95
2022-09-20T02:11:17.047Z,97.25
2022-09-20T02:12:17.029Z,97.05
2022-09-20T02:13:17.010Z,97.05
2022-09-20T02:14:17.006Z,96.95
2022-09-20T02:15:16.970Z,96.95
2022-09-20T02:16:17.089Z,96.95
2022-09-20T02:17:16.928Z,96.91
2022-09-20T02:18:16.904Z,96.95
2022-09-20T02:19:16.888Z,96.64
2022-09-20T02:20:16.877Z,96.84
2022-09-20T02:21:16.847Z,96.54
2022-09-20T02:22:16.839Z,96.75
2022-09-20T02:23:16.801Z,96.54
2022-09-20T02:24:16.785Z,96.44
2022-09-20T02:25:16.779Z,96.44
2022-09-20T02:26:16.734Z,96.75
2022-09-20T02:27:16.722Z,96.75
2022-09-20T02:28:16.699Z,96.34
2022-09-20T02:29:16.698Z,96.34
2022-09-20T02:30:16.674Z,96.54
2022-09-20T02:31:16.693Z,96.75
2022-09-20T02:32:16.613Z,96.54
2022-09-20T02:33:16.594Z,96.64
2022-09-20T02:34:16.573Z,96.95
2022-09-20T02:35:16.556Z,96.84
2022-09-20T02:36:16.548Z,96.84
2022-09-20T02:37:16.515Z,96.84
2022-09-20T02:38:16.491Z,96.75
2022-09-20T02:39:16.474Z,96.95
2022-09-20T02:40:16.494Z,96.54
2022-09-20T02:41:16.452Z,96.75
2022-09-20T02:42:16.414Z,96.95
2022-09-20T02:43:16.412Z,97.05
2022-09-20T02:44:16.368Z,96.95
2022-09-20T02:45:16.347Z,97.05
2022-09-20T02:46:16.347Z,96.95
2022-09-20T02:47:16.323Z,96.95
2022-09-20T02:48:16.289Z,96.95
2022-09-20T02:49:16.269Z,96.75
2022-09-20T02:50:16.252Z,96.95
2022-09-20T02:51:16.239Z,96.75
2022-09-20T02:52:16.205Z,96.75
2022-09-20T02:53:16.181Z,96.54
2022-09-20T02:54:16.160Z,96.75
2022-09-20T02:55:16.165Z,96.95
2022-09-20T02:56:16.127Z,96.84
2022-09-20T02:57:16.101Z,96.64
2022-09-20T02:58:16.082Z,96.64
2022-09-20T02:59:16.080Z,96.64
2022-09-20T03:00:16.046Z,96.44
2022-09-20T03:01:16.053Z,96.64
2022-09-20T03:02:16.053Z,97.05
2022-09-20T03:03:15.981Z,96.64
2022-09-20T03:04:15.957Z,96.84
2022-09-20T03:05:15.942Z,97.05
2022-09-20T03:06:15.920Z,97.25
2022-09-20T03:07:15.896Z,96.95
2022-09-20T03:08:15.890Z,96.84
2022-09-20T03:09:15.854Z,97.05
2022-09-20T03:10:15.839Z,96.75
2022-09-20T03:11:15.831Z,96.95
2022-09-20T03:12:15.791Z,97.05
2022-09-20T03:13:15.790Z,96.75
2022-09-20T03:14:15.760Z,96.75
2022-09-20T03:15:15.731Z,96.95
2022-09-20T03:16:15.765Z,97.05
2022-09-20T03:17:15.708Z,96.84
2022-09-20T03:18:15.666Z,97.46
2022-09-20T03:19:15.676Z,97.16
2022-09-20T03:20:15.637Z,97.56
2022-09-20T03:21:15.606Z,97.05
2022-09-20T03:22:15.578Z,97.36
2022-09-20T03:23:15.561Z,96.69
2022-09-20T03:24:15.545Z,96.75
2022-09-20T03:25:15.542Z,97.09
2022-09-20T03:26:15.520Z,97.25
2022-09-20T03:27:15.484Z,97.16
2022-09-20T03:28:15.461Z,97.50
2022-09-20T03:29:15.441Z,97.05
2022-09-20T03:30:15.427Z,97.61
2022-09-20T03:31:15.425Z,97.00
2022-09-20T03:32:15.407Z,97.71
2022-09-20T03:33:15.355Z,97.61
2022-09-20T03:34:15.337Z,97.30
2022-09-20T03:35:15.319Z,97.71
2022-09-20T03:36:15.292Z,97.66
2022-09-20T03:37:15.291Z,97.56
2022-09-20T03:38:15.250Z,97.77
2022-09-20T03:39:15.236Z,97.87
2022-09-20T03:40:15.288Z,97.97
2022-09-20T03:41:15.268Z,97.66
2022-09-20T03:42:15.186Z,98.22
2022-09-20T03:43:15.148Z,98.43
2022-09-20T03:44:15.128Z,98.27
2022-09-20T03:45:15.152Z,98.22
2022-09-20T03:46:15.168Z,97.81
2022-09-20T03:47:15.080Z,97.97
2022-09-20T03:48:15.048Z,98.43
2022-09-20T03:49:15.021Z,98.22
2022-09-20T03:50:15.003Z,98.18
2022-09-20T03:51:14.980Z,98.48
2022-09-20T03:52:14.984Z,97.81
2022-09-20T03:53:14.942Z,98.07
2022-09-20T03:54:14.933Z,98.38
2022-09-20T03:55:14.919Z,98.07
2022-09-20T03:56:14.880Z,98.32
2022-09-20T03:57:14.863Z,98.18
2022-09-20T03:58:14.841Z,98.02
2022-09-20T03:59:14.834Z,98.27
2022-09-20T04:00:14.797Z,98.22
2022-09-20T04:01:14.879Z,98.22
2022-09-20T04:02:14.849Z,98.43
2022-09-20T04:03:14.761Z,98.02
2022-09-20T04:04:14.717Z,98.22
2022-09-20T04:05:14.698Z,98.22
2022-09-20T04:06:14.677Z,98.18
2022-09-20T04:07:14.648Z,98.38
2022-09-20T04:08:14.636Z,98.07
2022-09-20T04:09:14.631Z,98.43
2022-09-20T04:10:14.594Z,98.32
2022-09-20T04:11:14.578Z,98.18
2022-09-20T04:12:14.548Z,98.22
2022-09-20T04:13:14.529Z,98.07
2022-09-20T04:14:14.830Z,97.87
2022-09-20T04:16:56.525Z,97.81
2022-09-20T04:17:56.433Z,98.43
2022-09-20T04:18:56.424Z,98.32
2022-09-20T04:19:56.397Z,97.66
2022-09-20T04:20:56.384Z,97.77
2022-09-20T04:21:56.350Z,98.18
2022-09-20T04:22:56.326Z,98.27
2022-09-20T04:23:56.411Z,98.18
2022-09-20T04:24:56.285Z,98.27
2022-09-20T04:25:56.286Z,98.32
2022-09-20T04:26:56.240Z,98.79
2022-09-20T04:27:56.223Z,98.83
2022-09-20T04:28:56.202Z,98.52
2022-09-20T04:29:56.181Z,97.77
2022-09-20T04:30:56.163Z,98.43
2022-09-20T04:31:56.181Z,98.02
2022-09-20T04:32:56.118Z,97.91
2022-09-20T04:33:56.114Z,98.02
2022-09-20T04:34:56.076Z,98.11
2022-09-20T04:35:56.057Z,97.81
2022-09-20T04:36:56.052Z,98.32
2022-09-20T04:37:56.019Z,98.43
2022-09-20T04:38:56.009Z,98.22
2022-09-20T04:39:56.030Z,98.02
2022-09-20T04:40:55.956Z,97.91
2022-09-20T04:41:55.955Z,97.91
2022-09-20T04:42:55.930Z,97.30
2022-09-20T04:43:55.903Z,98.02
2022-09-20T04:44:55.871Z,97.71
2022-09-20T04:45:55.909Z,97.61
2022-09-20T04:46:56.320Z,97.81
2022-09-20T04:47:55.813Z,97.50
2022-09-20T04:48:55.802Z,97.61
2022-09-20T04:49:55.783Z,97.61
2022-09-20T04:50:55.747Z,97.30
2022-09-20T04:51:55.722Z,97.71
2022-09-20T04:52:55.790Z,97.46
2022-09-20T04:53:55.713Z,97.40
2022-09-20T04:54:55.678Z,97.46
2022-09-20T04:55:55.670Z,97.50
2022-09-20T04:56:55.620Z,97.20
2022-09-20T04:57:55.600Z,97.81
2022-09-20T04:58:55.604Z,98.11
2022-09-20T04:59:55.560Z,98.02
2022-09-20T05:00:55.591Z,98.32
2022-09-20T05:01:55.688Z,98.02
2022-09-20T05:02:55.518Z,97.91
2022-09-20T05:03:55.480Z,97.61
2022-09-20T05:04:55.460Z,97.81
2022-09-20T05:05:55.432Z,97.71
2022-09-20T05:06:55.436Z,97.81
2022-09-20T05:07:55.482Z,97.50
2022-09-20T05:08:58.791Z,97.40
2022-09-20T05:09:55.371Z,97.71
2022-09-20T05:10:55.351Z,97.20
2022-09-20T05:11:55.318Z,97.81
2022-09-20T05:12:55.311Z,97.50
2022-09-20T05:13:55.263Z,97.25
2022-09-20T05:14:55.249Z,97.61
2022-09-20T05:15:55.229Z,97.61
2022-09-20T05:16:55.342Z,97.40
2022-09-20T05:17:55.186Z,97.50
2022-09-20T05:18:55.221Z,97.91
2022-09-20T05:19:55.182Z,97.91
2022-09-20T05:20:55.158Z,97.81
2022-09-20T05:21:55.124Z,98.02
2022-09-20T05:22:55.085Z,98.02
2022-09-20T05:23:55.060Z,98.11
2022-09-20T05:24:55.040Z,97.91
2022-09-20T05:25:55.016Z,98.32
2022-09-20T05:26:55.000Z,97.61
2022-09-20T05:27:54.991Z,98.22
2022-09-20T05:28:54.954Z,97.30
2022-09-20T05:29:54.952Z,97.50
2022-09-20T05:30:54.923Z,97.40
2022-09-20T05:31:54.920Z,97.81
2022-09-20T05:32:54.889Z,97.50
2022-09-20T05:33:54.850Z,97.71
2022-09-20T05:34:54.830Z,97.81
2022-09-20T05:35:54.810Z,97.30
2022-09-20T05:36:54.787Z,98.02
2022-09-20T05:37:54.765Z,97.81
2022-09-20T05:38:55.794Z,97.61
2022-09-20T05:39:54.728Z,98.02
2022-09-20T05:40:54.704Z,97.91
2022-09-20T05:41:54.693Z,98.22
2022-09-20T05:42:54.661Z,97.81
2022-09-20T05:43:54.660Z,97.91
2022-09-20T05:44:54.636Z,98.02
2022-09-20T05:45:54.644Z,97.50
2022-09-20T05:46:54.576Z,97.77
2022-09-20T05:47:54.566Z,97.81
2022-09-20T05:48:54.542Z,97.25
2022-09-20T05:49:54.540Z,97.16
2022-09-20T05:50:55.776Z,97.71
2022-09-20T05:51:54.464Z,97.50
2022-09-20T05:52:54.454Z,96.95
2022-09-20T05:53:54.450Z,96.95
2022-09-20T05:54:54.414Z,97.61
2022-09-20T05:55:54.421Z,97.56
2022-09-20T05:56:54.404Z,97.46
2022-09-20T05:57:54.348Z,96.95
2022-09-20T05:58:54.332Z,97.77
2022-09-20T05:59:54.312Z,97.56
2022-09-20T06:00:54.311Z,96.95
2022-09-20T06:01:54.292Z,97.46
2022-09-20T06:02:54.263Z,97.46
2022-09-20T06:03:54.230Z,97.77
2022-09-20T06:04:54.206Z,97.46
2022-09-20T06:05:54.185Z,97.05
2022-09-20T06:06:54.165Z,97.66
2022-09-20T06:07:54.166Z,97.66
2022-09-20T06:08:54.126Z,97.77
2022-09-20T06:09:54.107Z,97.66
2022-09-20T06:10:54.078Z,97.46
2022-09-20T06:11:54.061Z,97.05
2022-09-20T06:12:54.040Z,97.36
2022-09-20T06:13:54.038Z,97.46
2022-09-20T06:14:54.019Z,97.56
2022-09-20T06:15:53.981Z,97.56
2022-09-20T06:16:53.964Z,96.95
2022-09-20T06:17:53.940Z,97.25
2022-09-20T06:18:53.937Z,97.05
2022-09-20T06:19:53.919Z,96.95
2022-09-20T06:20:53.885Z,97.52
2022-09-20T06:21:53.855Z,97.62
2022-09-20T06:22:53.840Z,97.41
2022-09-20T06:23:53.807Z,97.05
2022-09-20T06:24:53.791Z,96.91
2022-09-20T06:25:53.790Z,96.44
2022-09-20T06:26:53.749Z,96.39
2022-09-20T06:27:53.733Z,96.39
2022-09-20T06:28:57.712Z,96.84
2022-09-20T06:29:53.687Z,96.30
2022-09-20T06:30:53.728Z,96.60
2022-09-20T06:31:53.645Z,96.19
2022-09-20T06:32:53.625Z,96.30
2022-09-20T06:33:53.600Z,96.09
2022-09-20T06:34:53.586Z,96.19
2022-09-20T06:35:56.959Z,96.30
2022-09-20T06:36:53.561Z,96.19
2022-09-20T06:37:53.522Z,96.19
2022-09-20T06:38:53.500Z,96.35
2022-09-20T06:39:53.481Z,96.55
2022-09-20T06:40:53.465Z,96.76
2022-09-20T06:41:53.456Z,96.45
2022-09-20T06:42:53.417Z,96.45
2022-09-20T06:43:53.401Z,96.35
2022-09-20T06:44:53.374Z,96.41
2022-09-20T06:45:53.409Z,96.41
2022-09-20T06:46:53.360Z,96.41
2022-09-20T06:47:53.317Z,96.00
2022-09-20T06:48:53.321Z,96.20
2022-09-20T06:49:53.279Z,95.90
2022-09-20T06:50:53.258Z,95.29
2022-09-20T06:51:53.237Z,95.49
2022-09-20T06:52:53.214Z,94.68
2022-09-20T06:53:53.203Z,94.27
2022-09-20T06:54:53.185Z,94.47
2022-09-20T06:55:53.153Z,94.78
2022-09-20T06:56:53.148Z,94.47
2022-09-20T06:57:53.115Z,93.86
2022-09-20T06:58:53.110Z,94.17
2022-09-20T06:59:53.072Z,93.92
2022-09-20T07:00:53.071Z,94.23
2022-09-20T07:01:53.102Z,93.35
2022-09-20T07:02:53.011Z,93.62
2022-09-20T07:03:52.993Z,92.29
2022-09-20T07:04:52.984Z,92.49
2022-09-20T07:05:52.957Z,92.80
2022-09-20T07:06:52.930Z,92.65
2022-09-20T07:07:52.913Z,92.96
2022-09-20T07:08:52.951Z,92.35
2022-09-20T07:09:52.870Z,92.14
2022-09-20T07:10:52.873Z,93.12
2022-09-20T07:11:52.829Z,91.60
2022-09-20T07:12:52.809Z,91.49
2022-09-20T07:13:52.800Z,92.21
2022-09-20T07:14:52.786Z,92.30
2022-09-20T07:15:52.745Z,90.88
2022-09-20T07:16:52.764Z,90.99
2022-09-20T07:17:52.707Z,90.78
2022-09-20T07:18:52.694Z,91.60
2022-09-20T07:19:52.681Z,90.88
2022-09-20T07:20:52.666Z,91.29
2022-09-20T07:21:52.625Z,91.39
2022-09-20T07:22:52.614Z,91.39
2022-09-20T07:23:52.625Z,90.88
2022-09-20T07:24:52.582Z,91.09
2022-09-20T07:25:52.542Z,91.09
2022-09-20T07:26:52.544Z,91.39
2022-09-20T07:27:52.507Z,91.39
2022-09-20T07:28:52.489Z,90.99
2022-09-20T07:29:52.464Z,91.03
2022-09-20T07:30:52.444Z,90.83
2022-09-20T07:31:52.523Z,91.13
2022-09-20T07:32:52.410Z,91.07
2022-09-20T07:33:52.388Z,91.07
2022-09-20T07:34:52.367Z,91.23
2022-09-20T07:35:52.343Z,91.13
2022-09-20T07:36:52.356Z,91.74
2022-09-20T07:37:52.319Z,91.23
2022-09-20T07:38:52.367Z,91.13
2022-09-20T07:39:52.264Z,91.69
2022-09-20T07:40:52.246Z,90.99
2022-09-20T07:41:52.222Z,90.68
2022-09-20T07:42:56.074Z,90.94
2022-09-20T07:43:52.187Z,90.23
2022-09-20T07:44:52.169Z,90.03
2022-09-20T07:45:52.202Z,90.13
2022-09-20T07:46:52.129Z,89.52
2022-09-20T07:47:52.124Z,88.60
2022-09-20T07:48:52.088Z,88.81
2022-09-20T07:49:52.062Z,88.36
2022-09-20T07:50:52.042Z,88.16
2022-09-20T07:51:52.020Z,88.87
2022-09-20T07:52:52.025Z,88.76
2022-09-20T07:53:51.988Z,88.06
2022-09-20T07:54:51.963Z,88.06
2022-09-20T07:55:51.945Z,87.85
2022-09-20T07:56:51.921Z,87.61
2022-09-20T07:57:51.908Z,87.92
2022-09-20T07:58:52.622Z,88.32
2022-09-20T07:59:51.872Z,87.30
2022-09-20T08:00:51.879Z,87.46
2022-09-20T08:01:51.867Z,87.16
2022-09-20T08:02:51.806Z,87.37
2022-09-20T08:03:51.804Z,85.94
2022-09-20T08:04:51.766Z,86.25
2022-09-20T08:05:51.746Z,86.00
2022-09-20T08:06:51.727Z,85.74
2022-09-20T08:07:51.707Z,85.94
2022-09-20T08:08:51.734Z,85.39
2022-09-20T08:09:51.670Z,85.50
2022-09-20T08:10:51.644Z,85.70
2022-09-20T08:11:51.674Z,85.90
2022-09-20T08:14:17.815Z,85.70
2022-09-20T08:14:51.570Z,85.30
2022-09-20T08:15:51.546Z,85.50
2022-09-20T08:16:51.567Z,85.09
2022-09-20T08:17:51.524Z,85.03
2022-09-20T08:18:51.495Z,85.50
2022-09-20T08:19:51.498Z,85.33
2022-09-20T08:20:51.454Z,85.24
2022-09-20T08:21:51.428Z,85.64
2022-09-20T08:23:12.633Z,85.64
2022-09-20T08:23:51.394Z,85.64
2022-09-20T08:24:51.396Z,85.64
2022-09-20T08:25:51.358Z,86.15
2022-09-20T08:26:51.338Z,86.05
2022-09-20T08:27:51.318Z,86.05
2022-09-20T08:28:51.294Z,86.61
2022-09-20T08:29:51.305Z,87.37
2022-09-20T08:30:51.257Z,86.51
2022-09-20T08:31:51.270Z,87.12
2022-09-20T08:32:51.220Z,86.21
2022-09-20T08:33:51.197Z,85.09
2022-09-20T08:34:51.216Z,84.38
2022-09-20T08:35:51.166Z,85.15
2022-09-20T08:36:51.140Z,85.36
2022-09-20T08:37:51.471Z,83.53
2022-09-20T08:39:58.974Z,83.59
2022-09-20T08:40:51.083Z,83.39
2022-09-20T08:41:51.043Z,82.78
2022-09-20T08:42:51.020Z,82.89
2022-09-20T08:43:51.024Z,83.29
2022-09-20T08:44:57.756Z,81.77
2022-09-20T08:45:51.209Z,80.55
2022-09-20T08:46:50.945Z,81.57
2022-09-20T08:47:53.300Z,81.37
2022-09-20T08:48:50.905Z,81.77
2022-09-20T08:49:56.976Z,81.67
2022-09-20T08:50:50.895Z,81.97
2022-09-20T08:51:50.847Z,81.87
2022-09-20T08:52:50.849Z,81.52
2022-09-20T08:53:50.822Z,81.63
2022-09-20T08:54:50.802Z,80.68
2022-09-20T08:55:50.801Z,79.87
2022-09-20T08:56:50.755Z,80.44
2022-09-20T08:57:50.748Z,77.91
2022-09-20T08:58:50.726Z,76.97
2022-09-20T08:59:50.697Z,77.03
2022-09-20T09:00:50.836Z,76.12
2022-09-20T09:01:50.666Z,75.78
2022-09-20T09:02:50.661Z,74.26
2022-09-20T09:03:50.625Z,73.82
2022-09-20T09:04:50.630Z,73.72
2022-09-20T09:05:50.580Z,74.33
2022-09-20T09:06:50.583Z,72.91
2022-09-20T09:07:50.556Z,74.13
2022-09-20T09:08:50.522Z,73.82
2022-09-20T09:09:50.504Z,73.89
2022-09-20T09:10:50.507Z,74.19
2022-09-20T09:11:50.476Z,73.58
2022-09-20T09:12:50.445Z,72.98
2022-09-20T09:13:50.430Z,71.64
2022-09-20T09:14:50.422Z,72.34
2022-09-20T09:15:50.418Z,72.85
2022-09-20T09:16:50.418Z,72.34
2022-09-20T09:17:50.353Z,73.45
2022-09-20T09:18:50.349Z,72.20
2022-09-20T09:19:50.332Z,69.79
2022-09-20T09:20:50.302Z,70.39
2022-09-20T09:21:50.313Z,69.95
2022-09-20T09:22:50.283Z,70.59
2022-09-20T09:23:50.256Z,70.69
2022-09-20T09:24:50.224Z,70.22
2022-09-20T09:25:50.223Z,70.36
2022-09-20T09:26:50.209Z,70.29
2022-09-20T09:27:50.194Z,67.31
2022-09-20T09:28:50.155Z,66.17
2022-09-20T09:29:50.146Z,63.32
2022-09-20T09:30:50.136Z,63.62
2022-09-20T09:31:50.211Z,64.16
2022-09-20T09:32:50.119Z,63.99
2022-09-20T09:33:50.081Z,64.62
2022-09-20T09:34:50.061Z,65.42
2022-09-20T09:35:50.033Z,66.06
2022-09-20T09:36:50.012Z,66.42
2022-09-20T09:37:50.008Z,67.16
2022-09-20T09:38:49.998Z,68.77
2022-09-20T09:39:49.963Z,68.41
2022-09-20T09:40:49.945Z,67.80
2022-09-20T09:41:49.929Z,67.76
2022-09-20T09:42:49.932Z,68.51
2022-09-20T09:43:49.909Z,70.53
2022-09-20T09:44:49.888Z,70.36
2022-09-20T09:45:49.964Z,71.17
2022-09-20T09:46:49.843Z,70.96
2022-09-20T09:47:49.822Z,70.36
2022-09-20T09:48:49.861Z,72.38
2022-09-20T09:49:49.785Z,71.47
2022-09-20T09:50:49.795Z,72.08
2022-09-20T09:51:49.752Z,70.89
2022-09-20T09:52:49.743Z,71.40
2022-09-20T09:53:49.734Z,72.11
2022-09-20T09:54:49.701Z,71.91
2022-09-20T09:55:49.686Z,72.85
2022-09-20T09:56:49.660Z,74.07
2022-09-20T09:57:49.661Z,73.29
2022-09-20T09:58:49.643Z,74.00
2022-09-20T09:59:49.607Z,74.10
2022-09-20T10:00:49.630Z,74.00
2022-09-20T10:01:49.724Z,71.88
2022-09-20T10:02:49.560Z,71.97
2022-09-20T10:03:49.544Z,71.50
2022-09-20T10:04:49.528Z,71.91
2022-09-20T10:05:49.491Z,72.61
2022-09-20T10:06:52.390Z,72.01
2022-09-20T10:07:49.474Z,72.11
2022-09-20T10:08:49.455Z,73.25
2022-09-20T10:09:49.461Z,74.44
2022-09-20T10:10:49.419Z,74.84
2022-09-20T10:11:49.389Z,74.68
2022-09-20T10:12:49.373Z,75.59
2022-09-20T10:13:49.354Z,75.49
2022-09-20T10:14:49.348Z,75.79
2022-09-20T10:15:49.321Z,74.07
2022-09-20T10:16:49.365Z,75.69
2022-09-20T10:17:49.274Z,75.73
2022-09-20T10:18:49.248Z,76.43
2022-09-20T10:19:49.237Z,75.93
2022-09-20T10:20:49.229Z,77.55
2022-09-20T10:21:49.193Z,79.04
2022-09-20T10:23:14.663Z,79.45
2022-09-20T10:24:03.114Z,80.71
2022-09-20T10:24:51.551Z,82.23
2022-09-20T10:25:49.118Z,83.24
2022-09-20T10:26:49.113Z,83.79
2022-09-20T10:27:49.082Z,84.60
2022-09-20T10:28:49.065Z,85.05
2022-09-20T10:29:49.054Z,85.35
2022-09-20T10:30:49.079Z,85.46
2022-09-20T10:31:49.020Z,85.76
2022-09-20T10:32:48.993Z,85.46
2022-09-20T10:33:48.962Z,85.80
2022-09-20T10:34:48.955Z,86.51
2022-09-20T10:35:48.922Z,86.71
2022-09-20T10:36:48.933Z,87.32
2022-09-20T10:37:49.596Z,87.63
2022-09-20T10:38:48.862Z,87.84
2022-09-20T10:39:48.848Z,88.13
2022-09-20T10:40:48.841Z,87.73
2022-09-20T10:41:48.801Z,87.43
2022-09-20T10:42:48.785Z,87.63
2022-09-20T10:43:48.759Z,87.32
2022-09-20T10:44:48.754Z,87.84
2022-09-20T10:46:27.922Z,87.23
2022-09-20T10:46:48.732Z,87.23
2022-09-20T10:47:48.709Z,87.29
2022-09-20T10:48:48.663Z,87.23
2022-09-20T10:49:50.932Z,87.73
2022-09-20T10:50:48.627Z,87.38
2022-09-20T10:51:48.606Z,85.66
2022-09-20T10:52:48.870Z,86.68
2022-09-20T10:53:48.568Z,86.16
2022-09-20T10:54:48.557Z,86.68
2022-09-20T10:55:48.520Z,86.07
2022-09-20T10:56:48.511Z,85.96
2022-09-20T10:57:48.493Z,86.47
2022-09-20T10:58:48.490Z,87.34
2022-09-20T10:59:48.464Z,87.24
2022-09-20T11:00:48.480Z,87.65
2022-09-20T11:01:48.449Z,86.83
2022-09-20T11:02:48.389Z,86.83
2022-09-20T11:03:48.434Z,87.30
2022-09-20T11:04:48.361Z,87.30
2022-09-20T11:05:48.328Z,85.88
2022-09-20T11:06:48.309Z,86.15
2022-09-20T11:07:48.310Z,85.53
2022-09-20T11:08:48.269Z,85.19
2022-09-20T11:09:48.262Z,83.77
2022-09-20T11:10:48.257Z,83.26
2022-09-20T11:11:48.248Z,83.53
2022-09-20T11:12:48.192Z,83.94
2022-09-20T11:13:48.224Z,83.69
2022-09-20T11:14:48.152Z,83.80
2022-09-20T11:15:48.135Z,82.95
2022-09-20T11:16:48.214Z,83.04
2022-09-20T11:17:48.095Z,79.91
2022-09-20T11:18:48.081Z,80.07
2022-09-20T11:19:48.061Z,80.34
2022-09-20T11:20:48.046Z,79.06
2022-09-20T11:21:48.039Z,78.42
2022-09-20T11:22:47.999Z,78.88
2022-09-20T11:23:47.991Z,77.57
2022-09-20T11:24:47.962Z,75.37
2022-09-20T11:25:47.962Z,75.20
2022-09-20T11:26:47.924Z,73.45
2022-09-20T11:27:47.928Z,70.22
2022-09-20T11:28:47.894Z,71.91
2022-09-20T11:29:47.887Z,70.46
2022-09-20T11:30:47.849Z,69.35
2022-09-20T11:31:47.880Z,69.21
2022-09-20T11:32:47.808Z,69.32
2022-09-20T11:33:47.798Z,69.01
2022-09-20T11:34:47.775Z,69.05
2022-09-20T11:35:47.781Z,69.15
2022-09-20T11:36:47.746Z,67.50
2022-09-20T11:37:47.724Z,68.28
2022-09-20T11:38:52.873Z,69.32
2022-09-20T11:39:47.687Z,66.27
2022-09-20T11:40:47.697Z,65.94
2022-09-20T11:41:47.658Z,64.43
2022-09-20T11:42:47.641Z,62.45
2022-09-20T11:43:47.626Z,62.75
2022-09-20T11:44:47.604Z,64.26
2022-09-20T11:45:47.653Z,66.34
2022-09-20T11:46:47.598Z,64.70
2022-09-20T11:47:54.830Z,63.49
2022-09-20T11:48:47.543Z,64.97
2022-09-20T11:49:47.517Z,63.26
2022-09-20T11:50:47.523Z,63.26
2022-09-20T11:51:47.485Z,61.35
2022-09-20T11:52:47.488Z,61.79
2022-09-20T11:53:47.474Z,63.32
2022-09-20T11:54:47.444Z,62.24
2022-09-20T11:55:47.422Z,63.05
2022-09-20T11:56:47.419Z,64.39
2022-09-20T11:57:47.387Z,63.71
2022-09-20T11:58:47.369Z,66.06
2022-09-20T11:59:47.353Z,66.30
2022-09-20T12:00:47.346Z,68.31
2022-09-20T12:01:47.343Z,67.60
2022-09-20T12:02:47.492Z,68.65
2022-09-20T12:03:47.291Z,69.05
2022-09-20T12:04:47.277Z,68.57
2022-09-20T12:05:47.249Z,69.68
2022-09-20T12:06:47.264Z,69.72
2022-09-20T12:07:47.215Z,69.89
2022-09-20T12:08:47.194Z,69.58
2022-09-20T12:09:47.185Z,70.93
2022-09-20T12:10:47.158Z,70.32
2022-09-20T12:11:47.141Z,71.64
2022-09-20T12:12:47.145Z,71.77
2022-09-20T12:13:47.108Z,72.51
2022-09-20T12:14:47.088Z,73.72
2022-09-20T12:15:47.071Z,74.23
2022-09-20T12:16:47.116Z,74.13
2022-09-20T12:17:47.069Z,74.07
2022-09-20T12:18:47.016Z,75.04
2022-09-20T12:19:46.995Z,75.07
2022-09-20T12:20:46.977Z,75.75
2022-09-20T12:21:49.434Z,76.05
2022-09-20T12:22:46.945Z,76.26
2022-09-20T12:23:46.944Z,74.43
2022-09-20T12:24:46.906Z,73.52
2022-09-20T12:25:46.891Z,72.72
2022-09-20T12:26:46.868Z,72.72
2022-09-20T12:27:46.859Z,71.47
2022-09-20T12:28:46.855Z,73.19
2022-09-20T12:29:46.817Z,72.85
2022-09-20T12:30:46.802Z,71.40
2022-09-20T12:31:46.797Z,71.03
2022-09-20T12:32:46.764Z,70.53
2022-09-20T12:33:46.761Z,70.32
2022-09-20T12:34:46.740Z,70.12
2022-09-20T12:35:46.732Z,70.42
2022-09-20T12:36:46.687Z,71.10
2022-09-20T12:37:46.676Z,69.98
2022-09-20T12:38:46.651Z,71.64
2022-09-20T12:39:46.652Z,69.62
2022-09-20T12:40:46.610Z,68.20
2022-09-20T12:41:46.601Z,69.92
2022-09-20T12:42:46.580Z,69.58
2022-09-20T12:43:46.582Z,68.77
2022-09-20T12:44:46.539Z,68.77
2022-09-20T12:45:46.557Z,69.68
2022-09-20T12:46:46.526Z,70.09
2022-09-20T12:47:46.505Z,69.18
2022-09-20T12:48:46.472Z,69.78
2022-09-20T12:49:46.476Z,69.89
2022-09-20T12:50:46.435Z,69.08
2022-09-20T12:51:46.412Z,69.75
2022-09-20T12:52:46.405Z,67.97
2022-09-20T12:53:46.380Z,69.78
2022-09-20T12:54:46.377Z,69.08
2022-09-20T12:55:46.362Z,69.68